Time;durP1;ratioP1;P1;durP2;ratioP2;P2;SDS_P1;SDS_P2;PMS_P1;PMS_P2;Temp;Humidity;BMP_temperature;BMP_pressure;BME280_temperature;BME280_humidity;BME280_pressure;Samples;Min_cycle;Max_cycle;Signal;HPM_P1;HPM_P2
2022/11/03 04:01:22;;;;;;;0.90;0.70;;;9.90;81.50;;;;;;5855769;22;21062;-79
2022/11/03 04:03:48;;;;;;;0.83;0.80;;;9.90;81.30;;;;;;5076613;28;20446;-79
2022/11/03 04:06:15;;;;;;;0.80;0.80;;;10.00;81.40;;;;;;5077598;28;20849;-79
2022/11/03 04:08:42;;;;;;;0.60;0.60;;;10.00;81.40;;;;;;5077294;28;20448;-79
2022/11/03 04:22:16;;;;;;;0.80;0.80;;;9.50;83.30;;;;;;5077010;28;20449;-79
2022/11/03 04:24:43;;;;;;;0.93;0.93;;;9.50;83.50;;;;;;5076969;28;20437;-80
2022/11/03 04:27:24;;;;;;;0.80;0.80;;;9.50;83.40;;;;;;5077093;28;20486;-79
2022/11/03 04:29:51;;;;;;;0.83;0.83;;;9.50;83.30;;;;;;5076572;28;20434;-79
2022/11/03 04:32:19;;;;;;;0.87;0.87;;;9.50;83.30;;;;;;5076460;28;20466;-80
2022/11/03 04:34:47;;;;;;;0.80;0.80;;;9.50;83.70;;;;;;5076800;28;20456;-79
2022/11/03 04:37:15;;;;;;;0.70;0.70;;;9.60;83.40;;;;;;5076866;28;20453;-80
2022/11/03 04:39:42;;;;;;;0.60;0.60;;;9.60;83.40;;;;;;5076958;28;20445;-80
2022/11/03 04:42:15;;;;;;;0.77;0.77;;;9.70;83.10;;;;;;5078209;28;20477;-80
2022/11/03 04:44:42;;;;;;;0.70;0.70;;;9.70;82.90;;;;;;5078812;28;20492;-80
2022/11/03 04:47:11;;;;;;;0.80;0.80;;;9.70;82.80;;;;;;5079222;28;20485;-80
2022/11/03 04:49:40;;;;;;;0.70;0.70;;;9.70;82.50;;;;;;5077882;28;20831;-79
2022/11/03 04:52:16;;;;;;;1.03;0.87;;;9.70;82.40;;;;;;5077981;28;20478;-80
2022/11/03 04:54:43;;;;;;;0.70;0.70;;;9.70;82.40;;;;;;5077475;28;20443;-80
2022/11/03 04:57:12;;;;;;;0.67;0.67;;;9.70;82.00;;;;;;5075942;28;20464;-79
2022/11/03 04:59:40;;;;;;;0.87;0.87;;;9.70;81.70;;;;;;5075559;28;20499;-79
2022/11/03 05:02:11;;;;;;;1.00;0.90;;;9.70;81.60;;;;;;5075748;28;20477;-79
2022/11/03 05:04:40;;;;;;;0.80;0.80;;;9.60;82.00;;;;;;5077054;28;20434;-79
2022/11/03 05:07:21;;;;;;;0.70;0.70;;;9.70;82.10;;;;;;5080297;28;20484;-80
2022/11/03 05:09:48;;;;;;;0.80;0.80;;;9.70;82.10;;;;;;5077553;28;20813;-79
2022/11/03 05:12:16;;;;;;;0.70;0.67;;;9.80;82.30;;;;;;5079098;28;20466;-80
2022/11/03 05:14:43;;;;;;;0.70;0.70;;;9.80;82.20;;;;;;5081178;28;20453;-80
2022/11/03 05:17:20;;;;;;;0.70;0.70;;;9.80;82.40;;;;;;5079135;28;20453;-80
2022/11/03 05:19:50;;;;;;;0.67;0.67;;;9.80;82.40;;;;;;5078810;28;20441;-80
2022/11/03 05:22:20;;;;;;;0.90;0.90;;;9.80;82.60;;;;;;5078503;28;20477;-80
2022/11/03 05:24:47;;;;;;;0.80;0.80;;;9.90;82.60;;;;;;5079176;28;20441;-80
2022/11/03 05:27:19;;;;;;;0.80;0.80;;;9.80;82.50;;;;;;5079299;28;20481;-80
2022/11/03 05:29:47;;;;;;;0.83;0.83;;;9.80;82.70;;;;;;5079009;28;20928;-80
2022/11/03 05:32:19;;;;;;;0.90;0.90;;;9.90;82.60;;;;;;5078394;28;20470;-80
2022/11/03 05:34:49;;;;;;;0.70;0.70;;;9.90;82.30;;;;;;5079584;28;20438;-80
2022/11/03 05:37:24;;;;;;;0.70;0.70;;;9.90;82.40;;;;;;5078541;28;20445;-80
2022/11/03 05:39:53;;;;;;;0.80;0.80;;;9.90;82.30;;;;;;5078755;28;20433;-80
2022/11/03 05:42:30;;;;;;;0.80;0.70;;;9.90;82.10;;;;;;5078322;28;20462;-80
2022/11/03 05:44:58;;;;;;;0.80;0.80;;;9.90;81.90;;;;;;5077297;28;20912;-80
2022/11/03 05:47:27;;;;;;;1.10;0.70;;;9.90;81.70;;;;;;5079775;28;20488;-81
2022/11/03 05:50:00;;;;;;;0.80;0.80;;;9.90;81.70;;;;;;5081326;28;20452;-80
2022/11/03 05:52:27;;;;;;;0.77;0.77;;;9.90;81.70;;;;;;5080187;28;20465;-80
2022/11/03 05:54:58;;;;;;;0.80;0.80;;;9.90;81.80;;;;;;5077326;28;20528;-80
2022/11/03 05:57:28;;;;;;;0.90;0.90;;;9.90;81.60;;;;;;5077544;28;20935;-80
2022/11/03 05:59:55;;;;;;;0.90;0.90;;;10.00;81.50;;;;;;5077333;28;20452;-80
2022/11/03 06:02:35;;;;;;;1.00;1.00;;;9.90;81.50;;;;;;5076712;28;20854;-80
2022/11/03 06:05:08;;;;;;;0.60;0.60;;;9.90;81.70;;;;;;5077379;28;20437;-80
2022/11/03 06:07:35;;;;;;;0.73;0.73;;;9.90;81.50;;;;;;5076753;28;20477;-79
2022/11/03 06:10:01;;;;;;;0.80;0.80;;;9.90;81.70;;;;;;5076400;28;20442;-79
2022/11/03 06:12:30;;;;;;;0.90;0.90;;;9.90;81.90;;;;;;5076546;28;20472;-80
2022/11/03 06:14:57;;;;;;;0.70;0.70;;;10.00;81.90;;;;;;5076907;28;20457;-80
2022/11/03 06:17:26;;;;;;;0.80;0.80;;;10.00;82.00;;;;;;5076789;28;20438;-80
2022/11/03 06:19:55;;;;;;;0.73;0.73;;;10.00;82.20;;;;;;5076457;28;20451;-79
2022/11/03 06:22:26;;;;;;;0.80;0.80;;;10.10;82.00;;;;;;5075990;28;20477;-80
2022/11/03 06:24:57;;;;;;;0.73;0.73;;;10.10;81.70;;;;;;5076274;28;20437;-80
2022/11/03 06:27:26;;;;;;;0.80;0.80;;;10.10;81.40;;;;;;5077126;28;20473;-79
2022/11/03 06:29:57;;;;;;;0.90;0.90;;;10.10;81.30;;;;;;5076763;28;20839;-80
2022/11/03 06:32:24;;;;;;;1.27;0.70;;;10.20;81.10;;;;;;5076770;28;20996;-80
2022/11/03 06:34:53;;;;;;;0.80;0.80;;;10.20;80.80;;;;;;5077265;28;20441;-80
2022/11/03 06:37:24;;;;;;;0.80;0.80;;;10.20;80.70;;;;;;5076877;28;20453;-80
2022/11/03 06:39:58;;;;;;;1.10;1.10;;;10.20;79.90;;;;;;5076857;28;20430;-80
2022/11/03 06:42:29;;;;;;;0.90;0.90;;;10.20;79.90;;;;;;5078936;28;20490;-80
2022/11/03 06:44:55;;;;;;;0.90;0.90;;;10.50;79.40;;;;;;5078140;28;20433;-81
2022/11/03 06:47:24;;;;;;;1.30;1.30;;;11.20;77.80;;;;;;5077386;28;20478;-80
2022/11/03 06:49:53;;;;;;;0.70;0.70;;;12.20;75.00;;;;;;5079562;28;20450;-80
2022/11/03 06:52:27;;;;;;;0.80;0.80;;;13.10;73.40;;;;;;5079122;28;20473;-80
2022/11/03 06:54:59;;;;;;;0.70;0.70;;;13.80;71.40;;;;;;5081150;28;20438;-80
2022/11/03 06:57:26;;;;;;;0.70;0.70;;;13.90;71.80;;;;;;5082414;28;20791;-80
2022/11/03 06:59:55;;;;;;;0.63;0.63;;;14.10;71.00;;;;;;5077919;28;20450;-77
2022/11/03 07:02:44;;;;;;;0.77;0.77;;;14.60;70.10;;;;;;5077778;28;20490;-80
2022/11/03 07:05:20;;;;;;;0.80;0.80;;;15.50;68.30;;;;;;5083951;28;20440;-80
2022/11/03 07:07:49;;;;;;;0.80;0.80;;;16.50;65.10;;;;;;5084606;28;20487;-80
2022/11/03 07:10:16;;;;;;;0.70;0.70;;;17.60;62.50;;;;;;5084539;28;20460;-79
2022/11/03 07:12:43;;;;;;;1.33;0.90;;;18.50;59.90;;;;;;5084029;28;20477;-81
2022/11/03 07:15:23;;;;;;;0.80;0.80;;;19.70;57.50;;;;;;5084044;28;20453;-80
2022/11/03 07:17:51;;;;;;;0.80;0.70;;;20.20;54.80;;;;;;5085291;28;20452;-80
2022/11/03 07:20:18;;;;;;;0.60;0.60;;;20.60;54.50;;;;;;5084495;28;20913;-81
2022/11/03 07:22:47;;;;;;;0.77;0.77;;;20.10;54.60;;;;;;5084596;28;20465;-81
2022/11/03 07:25:18;;;;;;;0.70;0.70;;;19.30;56.50;;;;;;5084666;28;20453;-80
2022/11/03 07:27:46;;;;;;;0.90;0.80;;;18.60;58.10;;;;;;5083670;28;21006;-80
2022/11/03 07:30:18;;;;;;;0.70;0.70;;;18.30;59.40;;;;;;5083533;28;20445;-80
2022/11/03 07:32:46;;;;;;;0.70;0.70;;;18.30;59.30;;;;;;5083697;28;20527;-80
2022/11/03 07:35:27;;;;;;;0.90;0.90;;;18.90;59.10;;;;;;5083452;28;20442;-81
2022/11/03 07:37:55;;;;;;;0.80;0.80;;;19.40;58.10;;;;;;5083666;28;20426;-81
2022/11/03 07:40:25;;;;;;;0.70;0.70;;;19.70;56.60;;;;;;5083253;28;20456;-81
2022/11/03 07:42:52;;;;;;;0.73;0.70;;;19.50;56.20;;;;;;5082899;28;20852;-81
2022/11/03 07:45:37;;;;;;;0.70;0.70;;;19.50;56.90;;;;;;5083416;28;20453;-81
2022/11/03 07:48:14;;;;;;;0.87;0.83;;;19.00;57.30;;;;;;5083147;28;20465;-81
2022/11/03 07:50:41;;;;;;;0.70;0.70;;;18.60;58.70;;;;;;5082800;28;20433;-80
2022/11/03 07:53:13;;;;;;;0.70;0.70;;;18.00;59.40;;;;;;5082963;28;20937;-81
2022/11/03 07:55:41;;;;;;;0.90;0.90;;;17.10;61.40;;;;;;5082963;28;20430;-81
2022/11/03 07:58:20;;;;;;;0.80;0.80;;;16.20;63.20;;;;;;5081847;28;20810;-80
2022/11/03 08:00:47;;;;;;;0.70;0.70;;;15.80;65.10;;;;;;5081873;28;20483;-81
2022/11/03 08:03:25;;;;;;;0.70;0.70;;;15.20;67.30;;;;;;5082695;28;20434;-81
2022/11/03 08:05:52;;;;;;;0.80;0.80;;;15.10;68.50;;;;;;5081595;28;20483;-81
2022/11/03 08:08:19;;;;;;;1.27;0.90;;;14.80;69.90;;;;;;5081537;28;20484;-81
2022/11/03 08:10:47;;;;;;;0.70;0.70;;;14.70;70.40;;;;;;5080733;28;20464;-81
2022/11/03 08:13:14;;;;;;;0.77;0.73;;;14.60;70.90;;;;;;5081226;28;20473;-81
2022/11/03 08:15:40;;;;;;;0.70;0.70;;;14.30;71.40;;;;;;5080958;28;20480;-81
2022/11/03 08:18:07;;;;;;;0.97;0.77;;;13.90;72.70;;;;;;5081385;28;20448;-81
2022/11/03 08:20:34;;;;;;;0.80;0.80;;;13.40;73.90;;;;;;5080932;28;20446;-81
2022/11/03 08:23:00;;;;;;;0.80;0.70;;;13.20;75.40;;;;;;5081522;28;20936;-81
2022/11/03 08:25:27;;;;;;;0.70;0.70;;;13.10;75.20;;;;;;5080362;28;20450;-80
2022/11/03 08:27:55;;;;;;;0.80;0.80;;;12.90;75.30;;;;;;5081516;28;20477;-81
2022/11/03 08:30:22;;;;;;;1.83;0.80;;;12.70;75.70;;;;;;5091943;28;20454;-81
2022/11/03 08:32:49;;;;;;;0.80;0.80;;;12.30;77.00;;;;;;5092656;28;20445;-81
2022/11/03 08:35:15;;;;;;;0.70;0.70;;;12.00;78.30;;;;;;5093700;28;20442;-81
2022/11/03 08:37:42;;;;;;;0.97;0.80;;;11.90;79.50;;;;;;5092895;28;20441;-81
2022/11/03 08:40:10;;;;;;;0.60;0.60;;;12.00;79.30;;;;;;5094033;28;20449;-81
2022/11/03 08:42:37;;;;;;;0.70;0.70;;;11.90;80.60;;;;;;5094137;28;20466;-81
2022/11/03 08:45:06;;;;;;;0.70;0.70;;;11.80;80.70;;;;;;5093961;28;20445;-81
2022/11/03 08:47:32;;;;;;;0.73;0.73;;;11.70;81.30;;;;;;5093853;28;20478;-81
2022/11/03 08:49:59;;;;;;;0.70;0.70;;;11.70;81.60;;;;;;5093977;28;20458;-81
2022/11/03 08:52:26;;;;;;;0.70;0.70;;;11.90;81.40;;;;;;5093953;28;20458;-81
2022/11/03 08:54:53;;;;;;;0.80;0.80;;;12.00;81.40;;;;;;5093265;28;20445;-81
2022/11/03 08:57:20;;;;;;;0.70;0.70;;;12.20;80.10;;;;;;5094091;28;20464;-81
2022/11/03 08:59:46;;;;;;;0.70;0.70;;;12.00;79.20;;;;;;5094369;28;20452;-80
2022/11/03 09:02:15;;;;;;;0.90;0.90;;;11.90;79.60;;;;;;5093187;28;20507;-81
2022/11/03 09:04:41;;;;;;;0.70;0.70;;;11.80;80.50;;;;;;5093188;28;20442;-81
2022/11/03 09:07:08;;;;;;;0.70;0.70;;;11.80;81.60;;;;;;5093347;28;20461;-82
2022/11/03 09:09:35;;;;;;;1.00;0.90;;;11.90;81.40;;;;;;5093412;28;20444;-82
2022/11/03 09:12:01;;;;;;;0.80;0.70;;;12.20;81.60;;;;;;5093033;28;20843;-81
2022/11/03 09:14:28;;;;;;;0.67;0.67;;;12.10;78.90;;;;;;5093516;28;20448;-81
2022/11/03 09:16:55;;;;;;;0.80;0.80;;;12.40;79.30;;;;;;5093162;28;20434;-82
2022/11/03 09:19:23;;;;;;;0.60;0.60;;;12.60;80.00;;;;;;5093707;28;20441;-81
2022/11/03 09:21:51;;;;;;;0.70;0.70;;;12.70;78.60;;;;;;5094860;28;20470;-81
2022/11/03 09:24:17;;;;;;;0.80;0.80;;;12.50;79.40;;;;;;5096820;28;20456;-81
2022/11/03 09:26:44;;;;;;;0.83;0.83;;;12.60;80.00;;;;;;5096394;28;20477;-81
2022/11/03 09:29:11;;;;;;;0.90;0.90;;;12.60;78.40;;;;;;5097599;28;20450;-81
2022/11/03 09:31:38;;;;;;;0.73;0.63;;;12.70;79.70;;;;;;5097241;28;20465;-78
2022/11/03 09:34:04;;;;;;;0.80;0.80;;;12.80;80.10;;;;;;5096216;28;20494;-82
2022/11/03 09:36:33;;;;;;;0.80;0.70;;;13.00;78.90;;;;;;5096631;28;20497;-81
2022/11/03 09:38:59;;;;;;;0.60;0.60;;;12.90;77.00;;;;;;5096715;28;20446;-82
2022/11/03 09:41:26;;;;;;;0.80;0.80;;;12.90;77.70;;;;;;5096574;28;20465;-81
2022/11/03 09:43:54;;;;;;;0.70;0.70;;;12.90;77.90;;;;;;5096177;28;20452;-81
2022/11/03 09:46:21;;;;;;;0.70;0.70;;;12.90;77.90;;;;;;5091957;28;20442;-80
2022/11/03 09:48:47;;;;;;;0.80;0.70;;;12.70;78.20;;;;;;5095319;28;20489;-80
2022/11/03 09:51:18;;;;;;;0.67;0.67;;;12.90;78.90;;;;;;5095473;28;20462;-82
2022/11/03 09:53:47;;;;;;;0.70;0.70;;;12.60;78.30;;;;;;5096180;28;20418;-79
2022/11/03 09:56:15;;;;;;;0.80;0.70;;;12.70;78.50;;;;;;5095493;28;20464;-80
2022/11/03 09:58:41;;;;;;;0.60;0.60;;;12.90;79.20;;;;;;5094462;28;20441;-79
2022/11/03 10:01:10;;;;;;;0.70;0.70;;;12.80;78.90;;;;;;5093173;28;20921;-80
2022/11/03 10:03:39;;;;;;;0.60;0.60;;;12.90;79.80;;;;;;5087372;28;20456;-78
2022/11/03 10:06:06;;;;;;;0.70;0.70;;;12.90;78.40;;;;;;5094971;28;20516;-79
2022/11/03 10:08:37;;;;;;;0.73;0.60;;;12.80;78.80;;;;;;5096920;28;20462;-81
2022/11/03 10:11:08;;;;;;;0.80;0.80;;;12.70;78.80;;;;;;5097591;28;20515;-80
2022/11/03 10:13:37;;;;;;;0.70;0.70;;;12.70;80.10;;;;;;5096031;28;20426;-79
2022/11/03 10:16:06;;;;;;;0.70;0.70;;;12.80;79.60;;;;;;5096454;28;20445;-79
2022/11/03 10:18:34;;;;;;;0.70;0.70;;;12.80;79.10;;;;;;5095693;28;20444;-80
2022/11/03 10:21:04;;;;;;;0.80;0.80;;;12.70;79.40;;;;;;5096314;28;20667;-80
2022/11/03 10:23:31;;;;;;;0.70;0.67;;;12.80;79.50;;;;;;5096505;28;20503;-82
2022/11/03 10:26:10;;;;;;;1.00;0.90;;;12.70;80.50;;;;;;5092943;28;20525;-80
2022/11/03 10:28:37;;;;;;;0.73;0.73;;;12.80;80.60;;;;;;5096399;28;20492;-79
2022/11/03 10:31:07;;;;;;;0.70;0.70;;;12.80;79.30;;;;;;5092391;28;20464;-80
2022/11/03 10:33:35;;;;;;;0.60;0.60;;;12.80;80.00;;;;;;5090340;28;20430;-80
2022/11/03 10:36:04;;;;;;;2.80;0.80;;;12.80;80.60;;;;;;5083832;28;20479;-82
2022/11/03 10:38:33;;;;;;;0.80;0.67;;;12.90;79.50;;;;;;5083922;28;20446;-82
2022/11/03 10:41:15;;;;;;;0.60;0.60;;;12.90;80.20;;;;;;5085183;28;20474;-80
2022/11/03 10:43:44;;;;;;;0.70;0.70;;;12.90;80.30;;;;;;5083945;28;20430;-81
2022/11/03 10:46:18;;;;;;;0.77;0.77;;;13.00;79.10;;;;;;5083865;28;20445;-82
2022/11/03 10:48:45;;;;;;;0.70;0.70;;;12.90;80.00;;;;;;5082317;28;20472;-82
2022/11/03 10:51:12;;;;;;;0.70;0.70;;;13.00;80.90;;;;;;5080603;28;20473;-79
2022/11/03 10:53:41;;;;;;;0.60;0.60;;;13.00;80.50;;;;;;5080956;28;20449;-81
2022/11/03 10:56:08;;;;;;;0.70;0.70;;;13.10;79.40;;;;;;5083084;28;20461;-79
2022/11/03 10:58:36;;;;;;;0.63;0.63;;;13.40;80.00;;;;;;5083105;28;20442;-78
2022/11/03 11:01:05;;;;;;;0.70;0.70;;;13.50;78.80;;;;;;5079797;28;20484;-78
2022/11/03 11:03:33;;;;;;;0.80;0.80;;;13.40;78.90;;;;;;5078633;28;20430;-81
2022/11/03 11:06:00;;;;;;;0.80;0.80;;;13.60;79.00;;;;;;5085779;28;20442;-80
2022/11/03 11:08:26;;;;;;;0.80;0.80;;;13.50;78.70;;;;;;5084479;28;20477;-81
2022/11/03 11:10:54;;;;;;;0.70;0.70;;;13.50;78.70;;;;;;5082399;28;20462;-80
2022/11/03 11:13:26;;;;;;;0.60;0.60;;;13.30;79.30;;;;;;5084686;28;20821;-81
2022/11/03 11:15:56;;;;;;;0.80;0.80;;;13.40;79.60;;;;;;5081857;28;20961;-82
2022/11/03 11:19:01;;;;;;;0.80;0.80;;;13.40;79.70;;;;;;5081543;28;20446;-79
2022/11/03 11:22:00;;;;;;;0.73;0.73;;;13.00;80.10;;;;;;5082789;28;20461;-81
2022/11/03 11:24:57;;;;;;;0.80;0.80;;;13.20;80.40;;;;;;5081421;28;20504;-81
2022/11/03 11:27:59;;;;;;;0.70;0.70;;;13.40;79.50;;;;;;5084027;28;20481;-80
2022/11/03 11:31:02;;;;;;;0.73;0.70;;;13.30;79.50;;;;;;5049914;28;20445;-79
2022/11/03 11:33:33;;;;;;;0.80;0.80;;;13.10;80.10;;;;;;5083302;28;20913;-81
2022/11/03 11:36:19;;;;;;;0.70;0.70;;;13.20;79.80;;;;;;5082883;28;20445;-81
2022/11/03 11:39:10;;;;;;;1.03;0.93;;;13.30;79.70;;;;;;5081092;28;20901;-81
2022/11/03 11:42:10;;;;;;;0.70;0.70;;;13.20;80.20;;;;;;5080015;28;20927;-80
2022/11/03 11:44:49;;;;;;;0.90;0.77;;;13.30;80.10;;;;;;5082479;28;20509;-81
2022/11/03 11:47:28;;;;;;;0.70;0.70;;;13.40;79.90;;;;;;5082195;28;20923;-80
2022/11/03 11:50:21;;;;;;;0.70;0.70;;;13.60;79.20;;;;;;5083784;28;20454;-79
2022/11/03 11:52:52;;;;;;;0.70;0.70;;;13.70;78.80;;;;;;5073181;28;20984;-82
2022/11/03 11:55:25;;;;;;;1.20;1.20;;;13.60;79.00;;;;;;5077166;28;20426;-81
2022/11/03 11:57:52;;;;;;;0.70;0.70;;;13.60;79.10;;;;;;5075518;28;20897;-82
2022/11/03 12:00:21;;;;;;;0.70;0.70;;;13.50;79.40;;;;;;5077787;28;20449;-82
2022/11/03 12:02:48;;;;;;;0.60;0.60;;;13.50;79.30;;;;;;5076511;28;20484;-83
2022/11/03 12:05:22;;;;;;;0.80;0.80;;;13.60;79.40;;;;;;5076232;28;20473;-80
2022/11/03 12:07:48;;;;;;;0.80;0.80;;;13.70;78.80;;;;;;5082990;28;20472;-80
2022/11/03 12:10:17;;;;;;;1.00;0.93;;;13.60;78.80;;;;;;5080641;28;20454;-81
2022/11/03 12:12:44;;;;;;;1.17;1.07;;;13.50;79.40;;;;;;5080268;28;20462;-81
2022/11/03 12:15:49;;;;;;;0.80;0.80;;;13.40;79.60;;;;;;5080915;28;20442;-80
2022/11/03 12:18:29;;;;;;;0.70;0.70;;;13.40;79.80;;;;;;5080140;28;20467;-82
2022/11/03 12:20:57;;;;;;;0.97;0.70;;;13.50;79.70;;;;;;5076409;28;20480;-81
2022/11/03 12:23:40;;;;;;;0.80;0.80;;;13.60;79.40;;;;;;5080154;28;20446;-81
2022/11/03 12:26:14;;;;;;;0.90;0.80;;;13.90;78.80;;;;;;5081802;28;20450;-81
2022/11/03 12:28:41;;;;;;;0.80;0.80;;;13.90;78.20;;;;;;5078943;28;21002;-79
2022/11/03 12:31:07;;;;;;;0.80;0.80;;;13.80;78.50;;;;;;5080994;28;20850;-81
2022/11/03 12:33:34;;;;;;;0.90;0.80;;;13.80;78.90;;;;;;5079604;28;20456;-79
2022/11/03 12:36:02;;;;;;;0.80;0.80;;;13.60;79.10;;;;;;5073433;28;20449;-79
2022/11/03 12:38:29;;;;;;;1.10;0.93;;;13.70;78.50;;;;;;5076091;28;20952;-81
2022/11/03 12:40:55;;;;;;;0.70;0.70;;;13.90;78.60;;;;;;5081135;28;20465;-80
2022/11/03 12:43:22;;;;;;;0.70;0.70;;;14.00;77.60;;;;;;5080779;28;20450;-80
2022/11/03 12:48:32;;;;;;;0.70;0.70;;;14.30;77.40;;;;;;5061229;28;20473;-80
2022/11/03 12:50:59;;;;;;;0.80;0.80;;;14.40;76.70;;;;;;5078133;28;20492;-79
2022/11/03 12:53:27;;;;;;;0.83;0.80;;;14.40;76.30;;;;;;5076659;28;20449;-79
2022/11/03 12:55:54;;;;;;;0.70;0.70;;;14.60;76.30;;;;;;5077238;28;20468;-79
2022/11/03 12:58:21;;;;;;;1.10;1.00;;;14.60;76.00;;;;;;5077895;28;20448;-79
2022/11/03 13:00:47;;;;;;;0.70;0.70;;;14.70;76.00;;;;;;5043747;28;1021287;-80
2022/11/03 13:03:14;;;;;;;0.80;0.70;;;14.80;75.80;;;;;;5085648;28;20426;-80
2022/11/03 13:05:41;;;;;;;0.63;0.63;;;14.70;75.50;;;;;;5082409;28;20445;-79
2022/11/03 13:08:07;;;;;;;0.60;0.60;;;14.70;75.60;;;;;;5083507;28;20503;-79
2022/11/03 13:10:35;;;;;;;0.80;0.77;;;14.80;75.90;;;;;;5088388;28;20445;-81
2022/11/03 13:13:02;;;;;;;0.63;0.63;;;14.70;75.40;;;;;;5084249;28;20953;-81
2022/11/03 13:15:29;;;;;;;0.70;0.70;;;14.70;75.80;;;;;;5084047;28;20445;-80
2022/11/03 13:17:55;;;;;;;0.80;0.60;;;14.80;75.20;;;;;;5085000;28;20449;-82
2022/11/03 13:20:22;;;;;;;0.90;0.80;;;14.40;75.90;;;;;;5084242;28;20451;-82
2022/11/03 13:22:49;;;;;;;0.83;0.83;;;14.50;76.30;;;;;;5083334;28;20477;-81
2022/11/03 13:25:16;;;;;;;1.00;0.90;;;14.80;75.80;;;;;;5084632;28;20967;-80
2022/11/03 13:27:44;;;;;;;0.70;0.70;;;15.00;75.30;;;;;;5083886;28;20940;-82
2022/11/03 13:30:13;;;;;;;0.67;0.67;;;15.00;75.00;;;;;;5083840;28;20454;-82
2022/11/03 13:32:39;;;;;;;0.80;0.70;;;15.10;75.10;;;;;;5084594;28;20549;-80
2022/11/03 13:35:06;;;;;;;0.90;0.90;;;14.90;75.20;;;;;;5080423;28;20449;-79
2022/11/03 13:37:33;;;;;;;0.70;0.70;;;14.80;76.00;;;;;;5083621;28;20437;-80
2022/11/03 13:40:00;;;;;;;1.10;1.00;;;14.60;78.00;;;;;;5087145;28;20449;-81
2022/11/03 13:42:26;;;;;;;1.00;1.00;;;14.30;79.60;;;;;;5082564;28;20468;-80
2022/11/03 13:44:55;;;;;;;3.37;0.83;;;14.20;80.10;;;;;;5081094;28;20442;-80
2022/11/03 13:47:22;;;;;;;0.90;0.90;;;14.10;80.90;;;;;;5083586;28;20448;-80
2022/11/03 13:49:51;;;;;;;0.80;0.80;;;14.30;80.90;;;;;;5085066;28;20889;-78
2022/11/03 13:52:18;;;;;;;0.90;0.80;;;14.30;78.90;;;;;;5081127;28;20469;-81
2022/11/03 13:54:44;;;;;;;1.00;0.90;;;14.40;78.80;;;;;;5084656;28;20441;-80
2022/11/03 13:57:11;;;;;;;0.80;0.80;;;14.50;78.20;;;;;;5081787;28;20450;-81
2022/11/03 13:59:38;;;;;;;0.80;0.70;;;14.70;77.70;;;;;;5082702;28;20438;-80
2022/11/03 14:02:07;;;;;;;0.80;0.80;;;14.80;77.40;;;;;;5082545;28;20485;-81
2022/11/03 14:04:33;;;;;;;0.93;0.90;;;14.60;78.30;;;;;;5082803;28;20442;-81
2022/11/03 14:07:00;;;;;;;0.93;0.93;;;14.40;78.80;;;;;;5083172;28;20446;-82
2022/11/03 14:09:27;;;;;;;1.23;0.90;;;14.30;79.50;;;;;;5081059;28;20508;-81
2022/11/03 14:14:38;;;;;;;0.80;0.80;;;14.50;79.50;;;;;;5082893;28;20452;-80
2022/11/03 14:17:06;;;;;;;0.80;0.80;;;14.50;79.40;;;;;;5082780;28;20442;-80
2022/11/03 14:19:33;;;;;;;1.00;0.90;;;14.50;79.70;;;;;;5082224;28;20449;-80
2022/11/03 14:22:00;;;;;;;0.83;0.83;;;14.50;80.00;;;;;;5081465;28;20477;-80
2022/11/03 14:24:27;;;;;;;1.00;1.00;;;14.70;79.30;;;;;;5080093;28;20456;-80
2022/11/03 14:26:53;;;;;;;1.67;0.80;;;14.70;79.60;;;;;;5083164;28;20446;-81
2022/11/03 14:29:20;;;;;;;0.80;0.80;;;14.50;79.90;;;;;;5083560;28;20481;-81
2022/11/03 14:31:47;;;;;;;0.80;0.77;;;14.60;79.90;;;;;;5084479;28;20466;-80
2022/11/03 14:34:15;;;;;;;0.80;0.80;;;14.80;79.50;;;;;;5084656;28;20446;-80
2022/11/03 14:36:42;;;;;;;0.97;0.97;;;14.90;79.00;;;;;;5085197;28;20457;-80
2022/11/03 14:39:09;;;;;;;1.00;1.00;;;14.90;78.70;;;;;;5085093;28;20456;-81
2022/11/03 14:44:20;;;;;;;1.10;0.80;;;14.90;78.90;;;;;;5085982;28;20953;-79
2022/11/03 14:46:47;;;;;;;0.80;0.80;;;14.90;78.80;;;;;;5084976;28;20883;-80
2022/11/03 14:49:15;;;;;;;0.97;0.97;;;15.00;78.60;;;;;;5084176;28;20988;-80
2022/11/03 14:51:42;;;;;;;1.13;1.03;;;15.00;78.10;;;;;;5084438;28;21006;-79
2022/11/03 14:54:09;;;;;;;1.00;1.00;;;15.10;78.00;;;;;;5085933;28;20446;-80
2022/11/03 14:56:36;;;;;;;1.00;0.90;;;14.90;78.50;;;;;;5084994;28;20458;-80
2022/11/03 14:59:02;;;;;;;1.00;1.00;;;15.00;78.30;;;;;;5085262;28;20442;-79
2022/11/03 15:01:29;;;;;;;1.30;1.20;;;15.10;78.10;;;;;;5084675;28;20480;-80
2022/11/03 15:03:56;;;;;;;1.00;1.00;;;15.10;78.10;;;;;;5084986;28;20481;-80
2022/11/03 15:06:24;;;;;;;1.40;1.03;;;15.20;78.10;;;;;;5085324;28;20467;-80
2022/11/03 15:08:51;;;;;;;1.00;1.00;;;15.20;77.30;;;;;;5085606;28;20528;-80
2022/11/03 15:11:18;;;;;;;1.20;1.20;;;15.20;76.90;;;;;;5087106;28;20468;-81
2022/11/03 15:13:45;;;;;;;1.07;1.07;;;15.20;76.80;;;;;;5086634;28;20446;-80
2022/11/03 15:16:11;;;;;;;1.60;1.43;;;15.20;77.10;;;;;;5082153;28;20442;-79
2022/11/03 15:18:38;;;;;;;1.30;1.20;;;15.20;77.30;;;;;;5083278;28;20445;-80
2022/11/03 15:21:05;;;;;;;1.40;1.30;;;15.10;77.70;;;;;;5084812;28;20462;-80
2022/11/03 15:23:33;;;;;;;1.20;1.20;;;15.00;78.10;;;;;;5084609;28;20450;-81
2022/11/03 15:26:00;;;;;;;1.17;1.13;;;14.50;79.40;;;;;;5084946;28;20449;-80
2022/11/03 15:28:27;;;;;;;1.00;1.00;;;14.00;81.10;;;;;;5085535;28;20469;-80
2022/11/03 15:30:54;;;;;;;1.60;1.50;;;13.90;81.20;;;;;;5083579;28;21094;-80
2022/11/03 15:33:21;;;;;;;1.17;1.07;;;13.70;81.80;;;;;;5083323;28;20446;-80
2022/11/03 15:35:48;;;;;;;1.27;1.23;;;13.90;81.10;;;;;;5082688;28;20452;-80
2022/11/03 15:38:15;;;;;;;1.20;1.20;;;14.10;80.60;;;;;;5082640;28;20456;-80
2022/11/03 15:40:43;;;;;;;1.03;1.00;;;14.30;79.90;;;;;;5082665;28;20446;-80
2022/11/03 15:43:09;;;;;;;1.40;1.30;;;14.40;79.40;;;;;;5079022;28;20444;-80
2022/11/03 15:45:36;;;;;;;1.10;1.10;;;14.50;79.00;;;;;;5080566;28;20454;-80
2022/11/03 15:48:03;;;;;;;1.30;1.20;;;14.60;78.90;;;;;;5078740;28;20861;-79
2022/11/03 15:50:30;;;;;;;1.10;1.10;;;14.60;78.70;;;;;;5081589;28;20477;-80
2022/11/03 15:52:57;;;;;;;0.90;0.90;;;14.70;78.10;;;;;;5080367;28;20949;-81
2022/11/03 15:55:24;;;;;;;0.93;0.93;;;14.60;78.20;;;;;;5079777;28;20458;-80
2022/11/03 15:57:52;;;;;;;1.10;1.00;;;14.60;78.10;;;;;;5079897;28;20499;-80
2022/11/03 16:00:19;;;;;;;1.53;1.43;;;14.60;78.40;;;;;;5078938;28;20785;-80
2022/11/03 16:02:46;;;;;;;1.47;1.37;;;14.60;78.60;;;;;;5077260;28;20497;-79
2022/11/03 16:05:13;;;;;;;3.10;1.20;;;14.70;78.20;;;;;;5079173;28;20445;-80
2022/11/03 16:07:40;;;;;;;1.63;1.53;;;14.60;77.60;;;;;;5082632;28;20464;-81
2022/11/03 16:10:08;;;;;;;1.20;1.10;;;14.70;77.60;;;;;;5079723;28;21000;-81
2022/11/03 16:12:35;;;;;;;0.97;0.97;;;14.60;78.00;;;;;;5080655;28;20468;-81
2022/11/03 16:15:04;;;;;;;1.13;1.13;;;14.20;78.70;;;;;;5082337;28;20453;-81
2022/11/03 16:17:31;;;;;;;1.00;1.00;;;14.00;79.60;;;;;;5080494;28;20446;-81
2022/11/03 16:19:57;;;;;;;1.20;1.20;;;14.00;80.00;;;;;;5079894;28;20441;-82
2022/11/03 16:22:24;;;;;;;1.00;1.00;;;14.10;79.50;;;;;;5078146;28;20492;-80
2022/11/03 16:24:51;;;;;;;0.90;0.90;;;14.20;79.20;;;;;;5080214;28;20448;-81
2022/11/03 16:27:17;;;;;;;0.90;0.90;;;14.30;78.90;;;;;;5079951;28;20795;-81
2022/11/03 16:29:44;;;;;;;1.00;1.00;;;14.30;78.80;;;;;;5081174;28;20485;-80
2022/11/03 16:32:12;;;;;;;1.00;1.00;;;14.40;78.30;;;;;;5082485;28;20465;-81
2022/11/03 16:34:39;;;;;;;1.07;1.07;;;14.40;78.00;;;;;;5080277;28;20453;-81
2022/11/03 16:37:06;;;;;;;1.27;1.17;;;14.40;77.60;;;;;;5079371;28;20448;-80
2022/11/03 16:39:32;;;;;;;1.00;1.00;;;14.40;77.70;;;;;;5080817;28;20898;-80
2022/11/03 16:42:00;;;;;;;0.97;0.97;;;14.30;76.80;;;;;;5080135;28;20473;-80
2022/11/03 16:44:27;;;;;;;0.80;0.80;;;14.20;76.90;;;;;;5080791;28;21026;-80
2022/11/03 16:46:54;;;;;;;0.80;0.80;;;14.00;76.30;;;;;;5082345;28;20479;-79
2022/11/03 16:49:22;;;;;;;1.20;1.20;;;13.80;76.70;;;;;;5079366;28;20500;-81
2022/11/03 16:51:49;;;;;;;1.17;1.17;;;13.80;77.00;;;;;;5081171;28;20465;-80
2022/11/03 16:54:16;;;;;;;1.57;1.47;;;13.80;77.40;;;;;;5079130;28;20453;-82
2022/11/03 16:56:42;;;;;;;1.40;1.40;;;13.80;77.20;;;;;;5076002;28;20442;-80
2022/11/03 16:59:09;;;;;;;1.50;1.40;;;13.80;77.20;;;;;;5080691;28;20457;-81
2022/11/03 17:01:37;;;;;;;1.13;1.13;;;13.90;77.20;;;;;;5081756;28;20482;-81
2022/11/03 17:04:05;;;;;;;1.20;1.20;;;13.70;77.00;;;;;;5081536;28;20442;-82
2022/11/03 17:06:33;;;;;;;0.93;0.93;;;13.60;77.40;;;;;;5081187;28;20449;-81
2022/11/03 17:09:00;;;;;;;1.20;1.20;;;13.60;77.50;;;;;;5081113;28;20481;-81
2022/11/03 17:11:36;;;;;;;0.97;0.97;;;13.70;77.50;;;;;;5077115;28;20465;-82
2022/11/03 17:14:04;;;;;;;0.90;0.90;;;13.60;77.70;;;;;;5078096;28;20432;-81
2022/11/03 17:16:31;;;;;;;1.00;1.00;;;13.80;77.50;;;;;;5077983;28;20979;-82
2022/11/03 17:18:58;;;;;;;1.00;0.90;;;13.60;77.20;;;;;;5076298;28;20452;-82